Time;durP1;ratioP1;P1;durP2;ratioP2;P2;SDS_P1;SDS_P2;PMS_P1;PMS_P2;Temp;Humidity;BMP_temperature;BMP_pressure;BME280_temperature;BME280_humidity;BME280_pressure;Samples;Min_cycle;Max_cycle;Signal;HPM_P1;HPM_P2
2023/08/27 00:00:10;;;;;;;362.53;70.07;;;;;;;;;;4927166;28;20333;-54
2023/08/27 00:02:36;;;;;;;293.00;63.15;;;;;;;;;;4929757;28;20382;-54
2023/08/27 00:05:01;;;;;;;272.63;62.05;;;;;;;;;;4928613;28;20493;-54
2023/08/27 00:07:26;;;;;;;343.25;63.40;;;;;;;;;;4928302;28;20036;-56
2023/08/27 00:09:51;;;;;;;408.33;66.20;;;;;;;;;;4927197;28;20387;-57
2023/08/27 00:12:17;;;;;;;283.40;59.10;;;;;;;;;;4927683;28;20457;-54
2023/08/27 00:14:42;;;;;;;479.77;69.20;;;;;;;;;;4927056;28;20321;-55
2023/08/27 00:17:08;;;;;;;287.93;61.80;;;;;;;;;;4927283;28;20282;-53
2023/08/27 00:19:33;;;;;;;269.48;61.00;;;;;;;;;;4927608;28;20415;-54
2023/08/27 00:21:58;;;;;;;323.53;61.57;;;;;;;;;;4925070;28;20031;-54
2023/08/27 00:24:24;;;;;;;298.63;61.00;;;;;;;;;;4931747;28;20589;-57
2023/08/27 00:26:49;;;;;;;364.30;65.68;;;;;;;;;;4927717;28;20659;-53
2023/08/27 00:29:18;;;;;;;346.40;64.30;;;;;;;;;;4926859;28;20036;-55
2023/08/27 00:31:43;;;;;;;325.50;63.03;;;;;;;;;;4926444;28;20371;-55
2023/08/27 00:34:08;;;;;;;256.65;61.58;;;;;;;;;;4928358;28;20445;-56
2023/08/27 00:36:34;;;;;;;325.70;63.28;;;;;;;;;;4929285;28;20060;-54
2023/08/27 00:38:59;;;;;;;262.60;61.03;;;;;;;;;;4927390;28;20445;-55
2023/08/27 00:41:24;;;;;;;252.17;61.97;;;;;;;;;;4927589;28;20732;-53
2023/08/27 00:43:49;;;;;;;456.37;68.87;;;;;;;;;;4929218;28;20505;-53
2023/08/27 00:46:15;;;;;;;288.33;61.28;;;;;;;;;;4928538;28;20719;-54
2023/08/27 00:48:40;;;;;;;363.13;64.22;;;;;;;;;;4929456;28;20078;-54
2023/08/27 00:51:05;;;;;;;311.97;63.30;;;;;;;;;;4927250;28;20111;-55
2023/08/27 00:53:31;;;;;;;239.35;61.28;;;;;;;;;;4926966;28;20263;-54
2023/08/27 00:55:56;;;;;;;239.00;58.78;;;;;;;;;;4927258;28;20043;-55
2023/08/27 00:58:21;;;;;;;288.08;62.00;;;;;;;;;;4926999;28;20028;-55
2023/08/27 01:00:47;;;;;;;422.10;69.50;;;;;;;;;;4926509;28;20059;-55
2023/08/27 01:03:12;;;;;;;269.43;63.43;;;;;;;;;;4928462;28;20275;-56
2023/08/27 01:05:37;;;;;;;354.43;65.43;;;;;;;;;;4927958;28;20295;-53
2023/08/27 01:08:24;;;;;;;260.40;63.83;;;;;;;;;;4929440;28;20027;-55
2023/08/27 01:11:08;;;;;;;387.17;69.28;;;;;;;;;;4926443;28;20271;-54
2023/08/27 01:13:41;;;;;;;298.50;65.63;;;;;;;;;;4929951;28;20031;-54
2023/08/27 01:16:07;;;;;;;288.48;65.88;;;;;;;;;;4928260;28;20054;-55
2023/08/27 01:18:33;;;;;;;286.08;65.53;;;;;;;;;;4929453;28;20119;-55
2023/08/27 01:20:59;;;;;;;275.85;65.20;;;;;;;;;;4927592;28;20050;-55
2023/08/27 01:23:25;;;;;;;232.70;59.85;;;;;;;;;;4929022;28;20027;-54
2023/08/27 01:25:52;;;;;;;333.75;62.13;;;;;;;;;;4929302;28;20090;-53
2023/08/27 01:28:28;;;;;;;273.77;60.15;;;;;;;;;;4929633;28;20027;-53
2023/08/27 01:30:59;;;;;;;357.75;65.88;;;;;;;;;;4928699;28;20059;-54
2023/08/27 01:33:26;;;;;;;221.60;58.15;;;;;;;;;;4931436;28;20436;-53
2023/08/27 01:35:51;;;;;;;378.48;62.92;;;;;;;;;;4927390;28;20102;-55
2023/08/27 01:38:18;;;;;;;229.68;58.95;;;;;;;;;;4929073;28;20036;-53
2023/08/27 01:40:43;;;;;;;313.23;63.45;;;;;;;;;;4925691;28;20039;-55
2023/08/27 01:43:09;;;;;;;284.17;62.53;;;;;;;;;;4927206;28;20031;-54
2023/08/27 01:45:34;;;;;;;310.35;64.40;;;;;;;;;;4929637;28;20043;-56
2023/08/27 01:47:59;;;;;;;253.97;64.60;;;;;;;;;;4926591;28;20036;-53
2023/08/27 01:50:24;;;;;;;341.67;66.00;;;;;;;;;;4933791;28;20634;-55
2023/08/27 01:52:50;;;;;;;371.13;67.90;;;;;;;;;;4928305;28;20975;-56
2023/08/27 01:55:15;;;;;;;286.70;64.87;;;;;;;;;;4927540;28;20331;-56
2023/08/27 01:57:41;;;;;;;300.30;64.47;;;;;;;;;;4925472;28;20263;-54
2023/08/27 02:00:08;;;;;;;293.23;63.55;;;;;;;;;;4926899;28;20314;-54
2023/08/27 02:02:34;;;;;;;295.98;63.42;;;;;;;;;;4930099;28;20142;-55
2023/08/27 02:04:59;;;;;;;392.77;66.10;;;;;;;;;;4931404;28;20023;-54
2023/08/27 02:07:24;;;;;;;242.37;62.23;;;;;;;;;;4929306;28;20044;-56
2023/08/27 02:09:50;;;;;;;404.13;66.03;;;;;;;;;;4927081;28;21046;-55
2023/08/27 02:12:15;;;;;;;276.87;62.63;;;;;;;;;;4931960;28;20784;-56
2023/08/27 02:14:40;;;;;;;239.97;60.43;;;;;;;;;;4931351;28;20035;-56
2023/08/27 02:17:05;;;;;;;324.23;64.20;;;;;;;;;;4931471;28;20594;-53
2023/08/27 02:19:31;;;;;;;273.37;62.67;;;;;;;;;;4930068;28;20700;-54
2023/08/27 02:21:56;;;;;;;382.53;67.70;;;;;;;;;;4929600;28;20039;-54
2023/08/27 02:24:21;;;;;;;226.97;63.23;;;;;;;;;;4931712;28;20492;-53
2023/08/27 02:26:46;;;;;;;420.20;65.80;;;;;;;;;;4930569;28;20028;-54
2023/08/27 02:29:12;;;;;;;292.47;63.03;;;;;;;;;;4932222;28;20611;-53
2023/08/27 02:31:37;;;;;;;275.00;63.78;;;;;;;;;;4929329;28;20280;-54
2023/08/27 02:34:03;;;;;;;301.87;63.83;;;;;;;;;;4928814;28;20058;-54
2023/08/27 02:36:28;;;;;;;252.35;62.38;;;;;;;;;;4930406;28;20074;-53
2023/08/27 02:38:54;;;;;;;391.77;69.13;;;;;;;;;;4927972;28;20030;-54
2023/08/27 02:41:19;;;;;;;302.58;66.00;;;;;;;;;;4930157;28;20283;-56
2023/08/27 02:43:44;;;;;;;281.83;64.87;;;;;;;;;;4930982;28;20022;-56
2023/08/27 02:46:10;;;;;;;270.53;65.97;;;;;;;;;;4932643;28;20271;-55
2023/08/27 02:48:35;;;;;;;364.73;68.88;;;;;;;;;;4930329;28;20275;-56
2023/08/27 02:51:00;;;;;;;419.88;72.28;;;;;;;;;;4930716;28;20115;-56
2023/08/27 02:53:26;;;;;;;271.70;64.73;;;;;;;;;;4930065;28;20038;-54
2023/08/27 02:55:51;;;;;;;450.05;71.13;;;;;;;;;;4927087;28;20359;-54
2023/08/27 02:58:16;;;;;;;268.10;63.70;;;;;;;;;;4930995;28;20410;-55
2023/08/27 03:00:42;;;;;;;251.47;63.77;;;;;;;;;;4932812;28;20035;-54
2023/08/27 03:03:10;;;;;;;377.33;68.10;;;;;;;;;;4928879;28;20793;-53
2023/08/27 03:05:35;;;;;;;283.75;66.57;;;;;;;;;;4930854;28;20322;-54
2023/08/27 03:08:00;;;;;;;344.15;67.88;;;;;;;;;;4929341;28;20438;-55
2023/08/27 03:10:26;;;;;;;396.83;69.10;;;;;;;;;;4931729;28;20027;-54
2023/08/27 03:12:51;;;;;;;432.50;71.13;;;;;;;;;;4930632;28;20023;-54
2023/08/27 03:15:16;;;;;;;277.33;64.28;;;;;;;;;;4930587;28;20337;-54
2023/08/27 03:17:41;;;;;;;313.42;65.95;;;;;;;;;;4929144;28;20284;-53
2023/08/27 03:20:07;;;;;;;274.43;64.23;;;;;;;;;;4927773;28;20031;-56
2023/08/27 03:22:32;;;;;;;258.95;63.47;;;;;;;;;;4928188;28;20291;-53
2023/08/27 03:25:00;;;;;;;425.75;70.78;;;;;;;;;;4928765;28;20019;-53
2023/08/27 03:27:26;;;;;;;253.48;61.95;;;;;;;;;;4936967;28;20042;-56
2023/08/27 03:29:51;;;;;;;432.15;68.85;;;;;;;;;;4928306;28;20016;-56
2023/08/27 03:32:16;;;;;;;343.33;65.87;;;;;;;;;;4930983;28;20307;-54
2023/08/27 03:34:41;;;;;;;241.03;61.40;;;;;;;;;;4930069;28;20289;-53
2023/08/27 03:37:07;;;;;;;261.80;60.28;;;;;;;;;;4929065;28;20294;-56
2023/08/27 03:39:32;;;;;;;320.33;64.93;;;;;;;;;;4931057;28;20110;-54
2023/08/27 03:41:57;;;;;;;309.23;64.65;;;;;;;;;;4934085;28;20114;-56
2023/08/27 03:44:24;;;;;;;251.53;61.93;;;;;;;;;;4931490;28;20615;-55
2023/08/27 03:46:49;;;;;;;322.40;62.92;;;;;;;;;;4928271;28;21128;-55
2023/08/27 03:49:14;;;;;;;255.33;61.00;;;;;;;;;;4931657;28;20478;-53
2023/08/27 03:51:40;;;;;;;257.98;62.28;;;;;;;;;;4928239;28;20812;-56
2023/08/27 03:54:05;;;;;;;378.05;66.43;;;;;;;;;;4928978;28;20712;-55
2023/08/27 03:56:30;;;;;;;282.53;60.80;;;;;;;;;;4931036;28;20042;-54
2023/08/27 03:58:55;;;;;;;400.77;66.63;;;;;;;;;;4929384;28;20278;-53
2023/08/27 04:01:20;;;;;;;326.97;62.83;;;;;;;;;;4928896;28;20043;-56
2023/08/27 04:03:46;;;;;;;255.85;60.75;;;;;;;;;;4929398;28;20056;-55
2023/08/27 04:06:11;;;;;;;224.73;59.47;;;;;;;;;;4928394;28;20150;-55
2023/08/27 04:08:37;;;;;;;331.65;61.67;;;;;;;;;;4929431;28;20102;-54
2023/08/27 04:11:04;;;;;;;407.73;64.93;;;;;;;;;;4927381;28;20514;-54
2023/08/27 04:13:29;;;;;;;248.95;60.13;;;;;;;;;;4929360;28;20031;-57
2023/08/27 04:15:59;;;;;;;362.67;63.85;;;;;;;;;;4927997;28;20032;-54
2023/08/27 04:18:25;;;;;;;287.45;62.40;;;;;;;;;;4932172;28;20074;-56
2023/08/27 04:20:50;;;;;;;269.17;62.22;;;;;;;;;;4925510;28;20130;-55
2023/08/27 04:23:15;;;;;;;279.17;61.60;;;;;;;;;;4930339;28;20023;-54
2023/08/27 04:25:43;;;;;;;262.03;59.90;;;;;;;;;;4927164;28;20380;-56
2023/08/27 04:28:08;;;;;;;409.55;64.53;;;;;;;;;;4930223;28;20109;-53
2023/08/27 04:30:33;;;;;;;290.30;60.93;;;;;;;;;;4928576;28;20070;-53
2023/08/27 04:32:58;;;;;;;396.33;67.43;;;;;;;;;;4927658;28;20362;-54
2023/08/27 04:35:24;;;;;;;228.48;60.90;;;;;;;;;;4928515;28;20397;-54
2023/08/27 04:37:49;;;;;;;322.30;64.70;;;;;;;;;;4930924;28;20462;-54
2023/08/27 04:40:14;;;;;;;274.00;62.27;;;;;;;;;;4929992;28;20291;-54
2023/08/27 04:42:41;;;;;;;249.40;58.23;;;;;;;;;;4930054;28;20271;-53
2023/08/27 04:45:07;;;;;;;442.98;67.05;;;;;;;;;;4926158;28;20319;-55
2023/08/27 04:47:32;;;;;;;255.05;58.35;;;;;;;;;;4929050;28;20675;-54
2023/08/27 04:49:57;;;;;;;355.47;62.97;;;;;;;;;;4930504;28;20059;-55
2023/08/27 04:52:22;;;;;;;278.38;59.70;;;;;;;;;;4928408;28;20126;-54
2023/08/27 04:54:47;;;;;;;237.33;59.73;;;;;;;;;;4928904;28;20039;-54
2023/08/27 04:57:13;;;;;;;291.83;62.57;;;;;;;;;;4926201;28;20293;-55
2023/08/27 04:59:38;;;;;;;305.73;61.70;;;;;;;;;;4929123;28;20293;-54
2023/08/27 05:02:03;;;;;;;404.10;64.37;;;;;;;;;;4926686;28;20733;-54
2023/08/27 05:04:29;;;;;;;279.67;59.28;;;;;;;;;;4927887;28;20275;-54
2023/08/27 05:06:54;;;;;;;316.98;58.53;;;;;;;;;;4926837;28;20050;-56
2023/08/27 05:09:20;;;;;;;260.65;56.75;;;;;;;;;;4928796;28;20482;-55
2023/08/27 05:11:45;;;;;;;253.48;56.08;;;;;;;;;;4928362;28;20466;-57
2023/08/27 05:14:10;;;;;;;235.87;56.97;;;;;;;;;;4927823;28;20675;-54
2023/08/27 05:16:35;;;;;;;256.77;57.33;;;;;;;;;;4927833;28;20847;-53
2023/08/27 05:19:01;;;;;;;372.83;64.57;;;;;;;;;;4928072;28;20276;-55
2023/08/27 05:21:26;;;;;;;278.13;61.83;;;;;;;;;;4928246;28;20284;-55
2023/08/27 05:23:52;;;;;;;292.67;60.80;;;;;;;;;;4929914;28;20102;-56
2023/08/27 05:26:17;;;;;;;270.55;60.92;;;;;;;;;;4928701;28;20042;-55
2023/08/27 05:28:43;;;;;;;241.70;60.00;;;;;;;;;;4927798;28;20256;-55
2023/08/27 05:31:08;;;;;;;452.77;66.57;;;;;;;;;;4924578;28;20312;-55
2023/08/27 05:33:33;;;;;;;272.93;64.20;;;;;;;;;;4929855;28;20348;-55
2023/08/27 05:35:58;;;;;;;402.57;72.37;;;;;;;;;;4926573;28;20353;-54
2023/08/27 05:38:24;;;;;;;332.80;68.35;;;;;;;;;;4929015;28;20295;-56
2023/08/27 05:40:52;;;;;;;256.90;66.03;;;;;;;;;;4928264;28;20078;-54
2023/08/27 05:43:17;;;;;;;283.02;66.18;;;;;;;;;;4927236;28;20270;-56
2023/08/27 05:45:43;;;;;;;318.27;66.90;;;;;;;;;;4929255;28;20368;-53
2023/08/27 05:48:08;;;;;;;401.87;71.80;;;;;;;;;;4930170;28;20397;-54
2023/08/27 05:50:34;;;;;;;290.13;67.20;;;;;;;;;;4930523;28;20441;-55
2023/08/27 05:52:59;;;;;;;474.80;74.50;;;;;;;;;;4930324;28;20046;-54
2023/08/27 05:55:25;;;;;;;277.65;67.15;;;;;;;;;;4930691;28;20417;-54
2023/08/27 05:57:50;;;;;;;286.63;67.23;;;;;;;;;;4931932;28;20404;-55
2023/08/27 06:00:15;;;;;;;348.73;68.18;;;;;;;;;;4929750;28;20279;-54
2023/08/27 06:02:40;;;;;;;276.17;65.43;;;;;;;;;;4931589;28;20028;-54
2023/08/27 06:05:06;;;;;;;411.40;73.33;;;;;;;;;;4929530;28;20121;-54
2023/08/27 06:07:31;;;;;;;314.52;65.55;;;;;;;;;;4930487;28;20338;-53
2023/08/27 06:09:56;;;;;;;333.50;66.93;;;;;;;;;;4930770;28;20027;-55
2023/08/27 06:12:22;;;;;;;250.37;64.83;;;;;;;;;;4930671;28;20039;-52
2023/08/27 06:14:47;;;;;;;322.40;66.47;;;;;;;;;;4929816;28;20346;-54
2023/08/27 06:17:12;;;;;;;376.30;69.70;;;;;;;;;;4930214;28;20031;-53
2023/08/27 06:19:37;;;;;;;273.67;66.70;;;;;;;;;;4931678;28;20286;-53
2023/08/27 06:22:03;;;;;;;400.27;63.23;;;;;;;;;;4929553;28;20382;-55
2023/08/27 06:24:28;;;;;;;277.75;62.80;;;;;;;;;;4932028;28;20330;-54
2023/08/27 06:26:53;;;;;;;244.03;62.27;;;;;;;;;;4931888;28;20438;-53
2023/08/27 06:29:18;;;;;;;351.33;65.03;;;;;;;;;;4928885;28;20450;-53
2023/08/27 06:31:44;;;;;;;233.17;63.30;;;;;;;;;;4930889;28;20381;-55
2023/08/27 06:34:09;;;;;;;390.95;69.60;;;;;;;;;;4931005;28;21035;-54
2023/08/27 06:36:34;;;;;;;302.27;66.60;;;;;;;;;;4929599;28;20400;-54
2023/08/27 06:38:59;;;;;;;331.23;67.63;;;;;;;;;;4930721;28;20461;-52
2023/08/27 06:41:25;;;;;;;276.23;66.13;;;;;;;;;;4931727;28;20524;-54
2023/08/27 06:43:51;;;;;;;338.95;68.03;;;;;;;;;;4932055;28;20251;-55
2023/08/27 06:46:16;;;;;;;287.00;63.97;;;;;;;;;;4927126;28;22229;-53
2023/08/27 06:48:41;;;;;;;224.80;62.93;;;;;;;;;;4931864;28;20038;-53
2023/08/27 06:51:06;;;;;;;393.33;67.65;;;;;;;;;;4929626;28;20672;-53
2023/08/27 06:53:32;;;;;;;292.33;63.27;;;;;;;;;;4932160;28;20031;-53
2023/08/27 06:55:57;;;;;;;258.73;61.73;;;;;;;;;;4932006;28;20279;-55
2023/08/27 06:58:23;;;;;;;282.70;63.47;;;;;;;;;;4928702;28;20350;-53
2023/08/27 07:00:48;;;;;;;286.75;65.50;;;;;;;;;;4930543;28;20711;-53
2023/08/27 07:03:14;;;;;;;387.87;68.47;;;;;;;;;;4929227;28;20031;-52
2023/08/27 07:05:39;;;;;;;320.30;66.82;;;;;;;;;;4929442;28;20126;-53
2023/08/27 07:08:04;;;;;;;427.13;69.57;;;;;;;;;;4929014;28;20093;-51
2023/08/27 07:10:30;;;;;;;269.27;61.85;;;;;;;;;;4932725;28;20279;-52
2023/08/27 07:12:55;;;;;;;248.30;63.30;;;;;;;;;;4931744;28;20023;-52
2023/08/27 07:15:20;;;;;;;297.73;63.37;;;;;;;;;;4928540;28;20335;-52
2023/08/27 07:17:45;;;;;;;267.93;62.03;;;;;;;;;;4930873;28;20674;-52
2023/08/27 07:20:11;;;;;;;427.73;69.43;;;;;;;;;;4926615;28;20282;-53
2023/08/27 07:22:36;;;;;;;331.52;64.00;;;;;;;;;;4929474;28;20416;-52
2023/08/27 07:25:02;;;;;;;325.25;66.57;;;;;;;;;;4929345;28;20409;-54
2023/08/27 07:27:28;;;;;;;176.20;50.45;;;;;;;;;;4931056;28;20068;-51
2023/08/27 07:29:53;;;;;;;328.57;56.80;;;;;;;;;;4929346;28;20096;-52
2023/08/27 07:32:18;;;;;;;229.30;54.33;;;;;;;;;;4926655;28;20295;-53
2023/08/27 07:34:44;;;;;;;243.83;55.37;;;;;;;;;;4936768;28;20573;-52
2023/08/27 07:37:09;;;;;;;437.80;62.33;;;;;;;;;;4927827;28;20558;-53
2023/08/27 07:39:34;;;;;;;231.63;56.05;;;;;;;;;;4929186;28;20341;-52
2023/08/27 07:41:59;;;;;;;240.93;55.23;;;;;;;;;;4929689;28;20038;-53
2023/08/27 07:44:25;;;;;;;315.45;56.88;;;;;;;;;;4928223;28;20035;-55
2023/08/27 07:46:50;;;;;;;236.63;53.17;;;;;;;;;;4930257;28;20126;-52
2023/08/27 07:49:15;;;;;;;328.77;56.60;;;;;;;;;;4929345;28;20028;-52
2023/08/27 07:51:41;;;;;;;306.17;55.80;;;;;;;;;;4928466;28;20055;-53
2023/08/27 07:54:06;;;;;;;377.67;59.07;;;;;;;;;;4929460;28;20107;-52
2023/08/27 07:56:31;;;;;;;249.67;54.23;;;;;;;;;;4928982;28;20366;-53
2023/08/27 07:58:56;;;;;;;280.08;54.85;;;;;;;;;;4927792;28;20128;-52
2023/08/27 08:01:22;;;;;;;252.10;53.50;;;;;;;;;;4927147;28;20469;-53
2023/08/27 08:03:47;;;;;;;270.33;57.93;;;;;;;;;;4929829;28;20062;-55
2023/08/27 08:06:16;;;;;;;461.83;61.92;;;;;;;;;;4928223;28;20318;-57
2023/08/27 08:08:41;;;;;;;244.60;53.85;;;;;;;;;;4929452;28;20039;-57
2023/08/27 08:11:06;;;;;;;321.03;56.50;;;;;;;;;;4928852;28;20028;-55
2023/08/27 08:13:39;;;;;;;277.47;54.07;;;;;;;;;;4930246;28;20291;-53
2023/08/27 08:16:05;;;;;;;256.63;52.92;;;;;;;;;;4929558;28;20279;-54
2023/08/27 08:18:30;;;;;;;252.50;53.63;;;;;;;;;;4928238;28;20038;-55
2023/08/27 08:20:56;;;;;;;266.77;55.23;;;;;;;;;;4927630;28;20044;-54
2023/08/27 08:23:22;;;;;;;375.52;58.03;;;;;;;;;;4929020;28;20765;-53
2023/08/27 08:25:50;;;;;;;199.90;52.50;;;;;;;;;;4932242;28;20062;-54
2023/08/27 08:28:15;;;;;;;376.95;60.60;;;;;;;;;;4928051;28;20024;-53
2023/08/27 08:30:45;;;;;;;278.17;55.25;;;;;;;;;;4926858;28;20066;-53
2023/08/27 08:33:10;;;;;;;356.92;56.88;;;;;;;;;;4926637;28;20034;-54
2023/08/27 08:35:35;;;;;;;290.58;55.05;;;;;;;;;;4927552;28;20048;-53
2023/08/27 08:38:01;;;;;;;225.43;50.38;;;;;;;;;;4932553;28;20085;-54
2023/08/27 08:40:26;;;;;;;268.87;52.60;;;;;;;;;;4926014;28;20024;-54
2023/08/27 08:42:55;;;;;;;224.03;52.83;;;;;;;;;;4929232;28;20066;-53
2023/08/27 08:45:27;;;;;;;355.05;58.13;;;;;;;;;;4926461;28;20326;-56
2023/08/27 08:47:53;;;;;;;314.23;53.83;;;;;;;;;;4926795;28;20023;-53
2023/08/27 08:50:20;;;;;;;411.88;59.75;;;;;;;;;;4926613;28;20039;-53
2023/08/27 08:52:46;;;;;;;241.13;52.80;;;;;;;;;;4928117;28;20038;-54
2023/08/27 08:55:14;;;;;;;410.60;59.55;;;;;;;;;;4926160;28;20144;-55
2023/08/27 08:57:43;;;;;;;264.02;52.78;;;;;;;;;;4929480;28;20442;-53
2023/08/27 09:00:11;;;;;;;310.17;53.45;;;;;;;;;;4925269;28;20573;-56
2023/08/27 09:02:37;;;;;;;289.02;53.08;;;;;;;;;;4925267;28;20856;-55
2023/08/27 09:05:04;;;;;;;225.52;51.25;;;;;;;;;;4929525;28;20118;-54
2023/08/27 09:07:31;;;;;;;234.43;51.90;;;;;;;;;;4928160;28;20043;-54
2023/08/27 09:09:57;;;;;;;291.85;51.30;;;;;;;;;;4928755;28;20031;-55
2023/08/27 09:12:23;;;;;;;350.63;55.13;;;;;;;;;;4927523;28;20592;-54
2023/08/27 09:14:48;;;;;;;197.13;48.53;;;;;;;;;;4927155;28;20040;-56
2023/08/27 09:17:17;;;;;;;426.90;55.42;;;;;;;;;;4925798;28;20036;-53
2023/08/27 09:19:43;;;;;;;234.77;49.47;;;;;;;;;;4925629;28;20399;-55
2023/08/27 09:22:09;;;;;;;318.10;51.15;;;;;;;;;;4925601;28;20110;-53
2023/08/27 09:24:34;;;;;;;337.00;50.50;;;;;;;;;;4927312;28;20106;-54
2023/08/27 09:26:59;;;;;;;217.30;48.13;;;;;;;;;;4927094;28;20450;-54
2023/08/27 09:29:25;;;;;;;388.03;55.27;;;;;;;;;;4927144;28;20408;-54
2023/08/27 09:31:55;;;;;;;244.45;49.85;;;;;;;;;;4929059;28;20279;-53
2023/08/27 09:34:20;;;;;;;375.63;55.88;;;;;;;;;;4928366;28;20031;-54
2023/08/27 09:36:45;;;;;;;284.67;50.50;;;;;;;;;;4927347;28;20435;-54
2023/08/27 09:39:11;;;;;;;374.70;58.97;;;;;;;;;;4927149;28;20027;-55
2023/08/27 09:41:38;;;;;;;273.40;50.65;;;;;;;;;;4925760;28;20891;-54
2023/08/27 09:44:04;;;;;;;280.00;51.30;;;;;;;;;;4931013;28;20397;-53
2023/08/27 09:46:29;;;;;;;221.15;49.17;;;;;;;;;;4926844;28;20495;-55
2023/08/27 09:48:58;;;;;;;222.48;50.75;;;;;;;;;;4928906;28;20070;-55
2023/08/27 09:51:24;;;;;;;417.10;57.55;;;;;;;;;;4933245;28;20032;-55
2023/08/27 09:53:49;;;;;;;198.35;42.30;;;;;;;;;;4930631;28;20020;-55
2023/08/27 09:56:18;;;;;;;348.05;46.92;;;;;;;;;;4927032;28;20073;-54
2023/08/27 09:58:43;;;;;;;258.70;46.10;;;;;;;;;;4928592;28;20066;-57
2023/08/27 10:01:09;;;;;;;223.13;48.93;;;;;;;;;;4926912;28;20047;-56
2023/08/27 10:03:34;;;;;;;292.08;48.15;;;;;;;;;;4921786;28;20380;-54
2023/08/27 10:06:02;;;;;;;353.40;50.77;;;;;;;;;;4932961;28;20043;-57
2023/08/27 10:08:28;;;;;;;449.17;56.88;;;;;;;;;;4925700;28;20295;-55
2023/08/27 10:11:04;;;;;;;315.33;52.95;;;;;;;;;;4924844;28;20701;-56
2023/08/27 10:13:30;;;;;;;271.35;51.13;;;;;;;;;;4925449;28;20030;-55
2023/08/27 10:15:55;;;;;;;207.85;49.13;;;;;;;;;;4924798;28;20036;-57
2023/08/27 10:18:20;;;;;;;312.33;52.85;;;;;;;;;;4921357;28;20232;-56
2023/08/27 10:20:46;;;;;;;267.53;50.80;;;;;;;;;;4923241;28;20035;-56
2023/08/27 10:23:12;;;;;;;285.52;52.53;;;;;;;;;;4923771;28;20553;-56
2023/08/27 10:25:37;;;;;;;263.48;50.72;;;;;;;;;;4923154;28;20558;-54
2023/08/27 10:28:03;;;;;;;292.75;51.10;;;;;;;;;;4924457;28;20300;-56
2023/08/27 10:30:31;;;;;;;371.17;54.58;;;;;;;;;;4921882;28;20066;-55
2023/08/27 10:32:56;;;;;;;243.93;49.60;;;;;;;;;;4928939;28;20019;-52
2023/08/27 10:35:22;;;;;;;419.63;57.27;;;;;;;;;;4930508;28;20441;-55
2023/08/27 10:37:49;;;;;;;268.85;50.55;;;;;;;;;;4928038;28;20280;-54
2023/08/27 10:40:15;;;;;;;391.27;55.58;;;;;;;;;;4925853;28;20498;-55
2023/08/27 10:42:40;;;;;;;249.93;56.47;;;;;;;;;;4928154;28;20127;-54
2023/08/27 10:45:09;;;;;;;193.25;49.00;;;;;;;;;;4927904;28;20020;-54
2023/08/27 10:47:35;;;;;;;305.00;51.78;;;;;;;;;;4927392;28;20485;-57
2023/08/27 10:50:00;;;;;;;261.20;49.70;;;;;;;;;;4928417;28;20046;-53
2023/08/27 10:52:25;;;;;;;383.00;55.58;;;;;;;;;;4928826;28;20040;-54
2023/08/27 10:55:00;;;;;;;250.45;50.53;;;;;;;;;;4929709;28;20712;-54
2023/08/27 10:57:25;;;;;;;463.30;58.60;;;;;;;;;;4926831;28;20048;-54
2023/08/27 10:59:54;;;;;;;348.27;49.33;;;;;;;;;;4928510;28;20038;-54
2023/08/27 11:02:19;;;;;;;499.83;58.70;;;;;;;;;;4922796;28;20293;-54
2023/08/27 11:04:50;;;;;;;234.73;47.65;;;;;;;;;;4930234;28;20020;-54
2023/08/27 11:07:17;;;;;;;358.45;52.40;;;;;;;;;;4924771;28;20345;-56
2023/08/27 11:09:52;;;;;;;324.33;49.20;;;;;;;;;;4926392;28;20476;-54
2023/08/27 11:12:26;;;;;;;289.80;49.03;;;;;;;;;;4923209;28;20043;-53
2023/08/27 11:14:52;;;;;;;335.65;48.97;;;;;;;;;;4927343;28;20062;-54
2023/08/27 11:17:27;;;;;;;351.98;46.42;;;;;;;;;;4923223;28;20474;-54
2023/08/27 11:19:53;;;;;;;342.00;46.17;;;;;;;;;;4926240;28;20023;-55
2023/08/27 11:22:19;;;;;;;352.40;48.83;;;;;;;;;;4925868;28;20032;-55
2023/08/27 11:24:48;;;;;;;261.30;45.83;;;;;;;;;;4929557;28;20220;-55
2023/08/27 11:27:17;;;;;;;279.98;44.67;;;;;;;;;;4926704;28;20024;-54
2023/08/27 11:29:46;;;;;;;251.50;42.47;;;;;;;;;;4928097;28;20413;-54
2023/08/27 11:32:12;;;;;;;239.35;43.30;;;;;;;;;;4924970;28;20111;-54
2023/08/27 11:34:38;;;;;;;275.77;44.28;;;;;;;;;;4926279;28;20038;-54
2023/08/27 11:37:04;;;;;;;231.75;44.00;;;;;;;;;;4924946;28;20031;-55
2023/08/27 11:39:29;;;;;;;392.35;50.05;;;;;;;;;;4925258;28;20035;-52
2023/08/27 11:41:55;;;;;;;303.63;45.28;;;;;;;;;;4926125;28;20444;-55
2023/08/27 11:44:20;;;;;;;397.63;51.92;;;;;;;;;;4927008;28;20466;-52
2023/08/27 11:46:46;;;;;;;275.50;46.57;;;;;;;;;;4925640;28;20028;-54
2023/08/27 11:49:13;;;;;;;323.55;47.63;;;;;;;;;;4926552;28;20808;-54
2023/08/27 11:51:39;;;;;;;268.10;45.83;;;;;;;;;;4923154;28;20035;-54
2023/08/27 11:54:06;;;;;;;262.75;46.35;;;;;;;;;;4927125;28;20083;-57
2023/08/27 11:56:31;;;;;;;481.45;56.17;;;;;;;;;;4923128;28;20046;-56
2023/08/27 11:58:57;;;;;;;300.02;49.72;;;;;;;;;;4928829;28;20417;-59
2023/08/27 12:01:23;;;;;;;442.30;57.65;;;;;;;;;;4925051;28;20035;-56
2023/08/27 12:03:49;;;;;;;377.02;53.72;;;;;;;;;;4926730;28;20031;-55
2023/08/27 12:06:20;;;;;;;312.10;51.33;;;;;;;;;;4926697;28;20119;-54
2023/08/27 12:08:52;;;;;;;282.88;50.88;;;;;;;;;;4927740;28;20082;-57
2023/08/27 12:11:17;;;;;;;;;;;;;;;;;;4926396;28;20485;-54
2023/08/27 12:13:47;;;;;;;266.27;53.42;;;;;;;;;;4926855;28;20343;-55
2023/08/27 12:16:13;;;;;;;296.58;52.80;;;;;;;;;;4927522;28;20045;-57
2023/08/27 12:18:39;;;;;;;262.20;52.55;;;;;;;;;;4924383;28;20039;-56
2023/08/27 12:21:08;;;;;;;223.83;50.40;;;;;;;;;;4925656;28;20039;-57
2023/08/27 12:23:33;;;;;;;442.15;58.78;;;;;;;;;;4926152;28;20030;-56
2023/08/27 12:26:01;;;;;;;205.30;50.42;;;;;;;;;;4927396;28;20036;-55
2023/08/27 12:28:26;;;;;;;362.90;56.00;;;;;;;;;;4926123;28;20028;-56
2023/08/27 12:30:55;;;;;;;300.37;52.33;;;;;;;;;;4925030;28;20437;-53
2023/08/27 12:33:34;;;;;;;311.15;54.63;;;;;;;;;;4922447;28;20023;-53
2023/08/27 12:36:03;;;;;;;335.63;58.65;;;;;;;;;;4925565;28;20035;-56
2023/08/27 12:38:28;;;;;;;352.92;54.80;;;;;;;;;;4926278;28;20242;-55
2023/08/27 12:40:53;;;;;;;241.23;50.93;;;;;;;;;;4925138;28;20413;-56
2023/08/27 12:43:19;;;;;;;341.03;50.93;;;;;;;;;;4926060;28;20394;-53
2023/08/27 12:45:44;;;;;;;264.60;50.10;;;;;;;;;;4925615;28;20643;-55
2023/08/27 12:48:09;;;;;;;274.90;49.60;;;;;;;;;;4925358;28;20548;-53
2023/08/27 12:50:34;;;;;;;498.27;55.60;;;;;;;;;;4926884;28;20271;-56
2023/08/27 12:53:00;;;;;;;283.07;49.63;;;;;;;;;;4927998;28;20287;-54
2023/08/27 12:55:25;;;;;;;395.57;55.07;;;;;;;;;;4923818;28;20361;-56
2023/08/27 12:57:53;;;;;;;307.63;51.70;;;;;;;;;;4925410;28;20430;-56
2023/08/27 13:00:19;;;;;;;296.42;51.00;;;;;;;;;;4926352;28;20287;-53
2023/08/27 13:02:45;;;;;;;243.13;50.92;;;;;;;;;;4925648;28;20055;-52
2023/08/27 13:05:10;;;;;;;313.45;52.17;;;;;;;;;;4924326;28;20114;-54
2023/08/27 13:07:37;;;;;;;331.52;52.45;;;;;;;;;;4923295;28;20098;-53
2023/08/27 13:10:03;;;;;;;239.18;44.35;;;;;;;;;;4924995;28;20023;-54
2023/08/27 13:12:28;;;;;;;412.63;54.20;;;;;;;;;;4923570;28;20564;-53
2023/08/27 13:14:54;;;;;;;235.57;48.90;;;;;;;;;;4926300;28;20046;-56
2023/08/27 13:17:21;;;;;;;181.80;46.50;;;;;;;;;;4925006;28;20134;-55
2023/08/27 13:19:46;;;;;;;324.65;48.88;;;;;;;;;;4923774;28;20661;-53
2023/08/27 13:22:11;;;;;;;252.57;48.17;;;;;;;;;;4924140;28;20454;-53
2023/08/27 13:24:37;;;;;;;364.70;53.78;;;;;;;;;;4925390;28;20055;-55
2023/08/27 13:27:02;;;;;;;278.33;42.00;;;;;;;;;;4926795;28;20035;-55
2023/08/27 13:29:27;;;;;;;349.00;50.97;;;;;;;;;;4923087;28;20521;-54
2023/08/27 13:31:56;;;;;;;219.75;44.55;;;;;;;;;;4923697;28;20063;-55
2023/08/27 13:34:22;;;;;;;368.77;88.43;;;;;;;;;;4926848;28;20027;-52
2023/08/27 13:36:47;;;;;;;258.05;53.15;;;;;;;;;;4926613;28;20202;-53
2023/08/27 13:39:12;;;;;;;227.87;46.50;;;;;;;;;;4925893;28;20075;-55
2023/08/27 13:41:37;;;;;;;420.07;54.27;;;;;;;;;;4925220;28;20341;-53
2023/08/27 13:44:03;;;;;;;227.82;48.83;;;;;;;;;;4928246;28;20027;-55
2023/08/27 13:46:29;;;;;;;352.30;54.92;;;;;;;;;;4927407;28;20040;-57
2023/08/27 13:48:54;;;;;;;292.17;51.80;;;;;;;;;;4926079;28;20106;-55
2023/08/27 13:51:19;;;;;;;214.33;48.63;;;;;;;;;;4927320;28;20915;-53
2023/08/27 13:53:44;;;;;;;214.30;48.30;;;;;;;;;;4927502;28;20266;-53
2023/08/27 13:56:15;;;;;;;350.03;59.57;;;;;;;;;;4926098;28;20115;-53